This is the latest recevied weather packets stored in our database for station/object SP3TOM-10. If no packets are shown the sender has not sent any weather packets the latest 1 day(s).
| Time | Temp. | Humidity | Pressure | Rain* | Wind** | Luminosity | Snow |
|---|---|---|---|---|---|---|---|
| 1778049156 | 16.67° C | 52% | 993.8 hPa | - | - | - | - |
| 1778048256 | 16.11° C | 53% | 993.5 hPa | - | - | - | - |
| 1778047356 | 16.11° C | 53% | 993.7 hPa | - | - | - | - |
| 1778044654 | 16.11° C | 54% | 993.6 hPa | - | - | - | - |
| 1778043754 | 15.56° C | 54% | 993.6 hPa | - | - | - | - |
| 1778042854 | 15.56° C | 54% | 993.8 hPa | - | - | - | - |
| 1778041954 | 15.56° C | 54% | 993.7 hPa | - | - | - | - |
| 1778040153 | 15.56° C | 54% | 994.2 hPa | - | - | - | - |
| 1778039253 | 15.56° C | 54% | 994.2 hPa | - | - | - | - |
| 1778038353 | 15.56° C | 54% | 994.4 hPa | - | - | - | - |
| 1778037453 | 15.56° C | 54% | 994.6 hPa | - | - | - | - |
| 1778036553 | 15.56° C | 54% | 994.6 hPa | - | - | - | - |
| 1778035652 | 15.56° C | 54% | 995.1 hPa | - | - | - | - |
| 1778034752 | 16.11° C | 54% | 995.3 hPa | - | - | - | - |
| 1778033852 | 16.11° C | 53% | 995.2 hPa | - | - | - | - |
| 1778032052 | 16.67° C | 51% | 995.4 hPa | - | - | - | - |
| 1778031152 | 16.11° C | 54% | 995.3 hPa | - | - | - | - |
| 1778029351 | 16.11° C | 53% | 995.4 hPa | - | - | - | - |
| 1778028451 | 16.11° C | 53% | 995.7 hPa | - | - | - | - |
| 1778027551 | 16.67° C | 53% | 995.7 hPa | - | - | - | - |
| 1778026651 | 16.67° C | 53% | 995.6 hPa | - | - | - | - |
| 1778022150 | 17.78° C | 51% | 996.2 hPa | - | - | - | - |
| 1778021250 | 17.78° C | 51% | 996.2 hPa | - | - | - | - |
| 1778020350 | 17.78° C | 50% | 996.4 hPa | - | - | - | - |
| 1778014948 | 18.33° C | 49% | 996.6 hPa | - | - | - | - |
* Rain since midnight (hover to see other rain measurements)
** Current wind speed in m/s (hover to see current wind gust speed)